createdAt,value
2024-01-24T00:00:35.986Z,100120.88
2024-01-24T00:03:02.794Z,100136.03
2024-01-24T00:05:29.456Z,100142.22
2024-01-24T00:07:56.056Z,100144.09
2024-01-24T00:10:24.287Z,100141.09
2024-01-24T00:12:50.905Z,100131.63
2024-01-24T00:15:17.540Z,100119.16
2024-01-24T00:17:44.129Z,100112.06
2024-01-24T00:20:13.577Z,100103.97
2024-01-24T00:22:40.160Z,100093.41
2024-01-24T00:25:07.264Z,100096.34
2024-01-24T00:27:33.793Z,100090.38
2024-01-24T00:30:00.332Z,100081.16
2024-01-24T00:32:26.844Z,100103.06
2024-01-24T00:34:53.387Z,100105.72
2024-01-24T00:37:19.902Z,100101.63
2024-01-24T00:39:48.540Z,100096.19
2024-01-24T00:42:15.260Z,100095.63
2024-01-24T00:44:43.578Z,100111.28
2024-01-24T00:47:10.130Z,100097.13
2024-01-24T00:49:36.744Z,100075.47
2024-01-24T00:52:05.022Z,100084.69
2024-01-24T00:54:31.542Z,100064.06
2024-01-24T00:56:58.071Z,100058.09
2024-01-24T00:59:24.619Z,100067.78
2024-01-24T01:01:51.113Z,100066.94
2024-01-24T01:04:17.759Z,100068.25
2024-01-24T01:06:44.555Z,100070.09
2024-01-24T01:09:11.922Z,100089.56
2024-01-24T01:11:39.666Z,100079.53
2024-01-24T01:14:06.356Z,100080.59
2024-01-24T01:16:32.904Z,100086.00
2024-01-24T01:19:00.065Z,100096.53
2024-01-24T01:21:26.689Z,100085.94
2024-01-24T01:23:53.211Z,100107.84
2024-01-24T01:26:20.210Z,100082.34
2024-01-24T01:28:46.708Z,100081.47
2024-01-24T01:31:13.233Z,100063.09
2024-01-24T01:33:39.866Z,100069.03
2024-01-24T01:36:17.207Z,100073.34
2024-01-24T01:38:49.216Z,100079.59
2024-01-24T01:41:15.741Z,100069.59
2024-01-24T01:43:44.255Z,100044.13
2024-01-24T01:46:20.313Z,100070.13
2024-01-24T01:48:47.928Z,100048.97
2024-01-24T01:51:14.796Z,100053.31
2024-01-24T01:53:41.437Z,100054.38
2024-01-24T01:56:13.632Z,100062.47
2024-01-24T01:58:41.867Z,100084.66
2024-01-24T02:01:09.806Z,100083.25
2024-01-24T02:03:38.190Z,100078.09
2024-01-24T02:06:05.361Z,100077.50
2024-01-24T02:08:33.639Z,100061.75
2024-01-24T02:11:00.364Z,100076.34
2024-01-24T02:13:33.500Z,100087.16
2024-01-24T02:16:00.867Z,100069.53
2024-01-24T02:18:27.673Z,100077.41
2024-01-24T02:20:54.303Z,100079.53
2024-01-24T02:23:23.319Z,100077.00
2024-01-24T02:25:50.966Z,100078.41
2024-01-24T02:28:18.026Z,100080.03
2024-01-24T02:30:44.714Z,100083.84
2024-01-24T02:33:12.060Z,100097.91
2024-01-24T02:35:38.893Z,100092.72
2024-01-24T02:38:05.482Z,100091.38
2024-01-24T02:40:32.157Z,100092.25
2024-01-24T02:42:58.758Z,100095.28
2024-01-24T02:45:25.342Z,100088.16
2024-01-24T02:47:52.022Z,100098.50
2024-01-24T02:50:18.701Z,100092.84
2024-01-24T02:52:45.269Z,100071.97
2024-01-24T02:55:17.794Z,100077.91
2024-01-24T02:57:45.352Z,100071.59
2024-01-24T03:00:14.337Z,100073.19
2024-01-24T03:02:41.262Z,100061.56
2024-01-24T03:05:10.167Z,100049.34
2024-01-24T03:07:38.095Z,100047.94
2024-01-24T03:10:05.677Z,100063.34
2024-01-24T03:12:32.404Z,100067.44
2024-01-24T03:14:58.985Z,100070.13
2024-01-24T03:17:25.501Z,100077.19
2024-01-24T03:19:52.430Z,100076.91
2024-01-24T03:22:19.587Z,100077.69
2024-01-24T03:24:46.091Z,100064.09
2024-01-24T03:27:12.958Z,100068.09
2024-01-24T03:29:42.142Z,100067.50
2024-01-24T03:32:08.645Z,100054.78
2024-01-24T03:34:35.280Z,100046.63
2024-01-24T03:37:01.826Z,100050.38
2024-01-24T03:39:28.937Z,100054.69
2024-01-24T03:41:55.498Z,100026.97
2024-01-24T03:44:21.988Z,100043.25
2024-01-24T03:46:48.513Z,100041.56
2024-01-24T03:49:15.950Z,100034.47
2024-01-24T03:51:42.719Z,100026.25
2024-01-24T03:54:09.265Z,100041.34
2024-01-24T03:56:35.760Z,100033.94
2024-01-24T03:59:02.322Z,100047.94
2024-01-24T04:01:29.039Z,100026.44
2024-01-24T04:03:55.849Z,100041.03
2024-01-24T04:06:22.675Z,100036.13
2024-01-24T04:08:49.309Z,100042.06
2024-01-24T04:11:15.812Z,100042.06
2024-01-24T04:13:43.567Z,100037.09
2024-01-24T04:16:10.157Z,100018.59
2024-01-24T04:18:36.835Z,100032.09
2024-01-24T04:21:03.543Z,100048.56
2024-01-24T04:23:30.057Z,100029.78
2024-01-24T04:25:56.825Z,100037.66
2024-01-24T04:28:23.328Z,100007.19
2024-01-24T04:30:49.882Z,100023.16
2024-01-24T04:33:16.535Z,100029.13
2024-01-24T04:35:43.131Z,100025.31
2024-01-24T04:38:09.649Z,100019.03
2024-01-24T04:40:36.207Z,100020.81
2024-01-24T04:43:03.019Z,100010.91
2024-01-24T04:45:29.636Z,100009.06
2024-01-24T04:47:56.311Z,100022.63
2024-01-24T04:50:23.411Z,100014.78
2024-01-24T04:52:50.007Z,100011.38
2024-01-24T04:55:16.860Z,100015.47
2024-01-24T04:57:43.785Z,100014.13
2024-01-24T05:00:13.174Z,100029.91
2024-01-24T05:02:40.481Z,100021.47
2024-01-24T05:05:08.131Z,99995.13
2024-01-24T05:07:36.010Z,99999.97
2024-01-24T05:10:04.669Z,100014.06
2024-01-24T05:12:31.908Z,100019.41
2024-01-24T05:14:58.559Z,100020.94
2024-01-24T05:17:25.244Z,100022.53
2024-01-24T05:19:51.781Z,99993.72
2024-01-24T05:22:18.810Z,100005.59
2024-01-24T05:24:46.519Z,99999.88
2024-01-24T05:27:14.151Z,100016.91
2024-01-24T05:29:40.831Z,100009.78
2024-01-24T05:32:07.975Z,100000.53
2024-01-24T05:34:34.614Z,100003.50
2024-01-24T05:37:01.297Z,100015.19
2024-01-24T05:39:27.900Z,100019.03
2024-01-24T05:41:54.405Z,100004.94
2024-01-24T05:44:21.910Z,100002.72
2024-01-24T05:46:48.412Z,100006.66
2024-01-24T05:49:15.636Z,100009.13
2024-01-24T05:51:43.655Z,100009.97
2024-01-24T05:54:10.475Z,100016.59
2024-01-24T05:56:37.134Z,100024.44
2024-01-24T05:59:03.698Z,100038.53
2024-01-24T06:01:30.525Z,100044.38
2024-01-24T06:03:57.328Z,100022.25
2024-01-24T06:06:24.200Z,100031.06
2024-01-24T06:08:51.057Z,100013.69
2024-01-24T06:11:18.420Z,100028.88
2024-01-24T06:13:45.078Z,100020.41
2024-01-24T06:16:11.691Z,100015.38
2024-01-24T06:18:38.316Z,100035.47
2024-01-24T06:21:04.997Z,100017.72
2024-01-24T06:23:31.505Z,100029.34
2024-01-24T06:25:58.002Z,100021.63
2024-01-24T06:28:24.513Z,100028.16
2024-01-24T06:30:52.662Z,100037.97
2024-01-24T06:33:19.421Z,100034.75
2024-01-24T06:35:46.026Z,100053.72
2024-01-24T06:38:12.583Z,100041.34
2024-01-24T06:40:39.120Z,100047.59
2024-01-24T06:43:05.711Z,100057.03
2024-01-24T06:45:32.492Z,100061.88
2024-01-24T06:48:02.042Z,100068.13
2024-01-24T06:50:30.443Z,100068.91
2024-01-24T06:52:58.705Z,100051.00
2024-01-24T06:55:25.765Z,100083.56
2024-01-24T06:57:52.310Z,100077.03
2024-01-24T07:00:20.017Z,100094.06
2024-01-24T07:02:46.711Z,100100.59
2024-01-24T07:05:13.990Z,100104.13
2024-01-24T07:07:40.519Z,100108.38
2024-01-24T07:10:12.339Z,100101.56
2024-01-24T07:12:46.098Z,100104.47
2024-01-24T07:15:13.577Z,100100.47
2024-01-24T07:17:40.852Z,100130.69
2024-01-24T07:20:08.356Z,100138.16
2024-01-24T07:22:34.924Z,100152.94
2024-01-24T07:25:02.384Z,100144.13
2024-01-24T07:27:31.724Z,100144.13
2024-01-24T07:29:58.994Z,100174.03
2024-01-24T07:32:25.594Z,100159.22
2024-01-24T07:34:52.211Z,100156.31
2024-01-24T07:37:18.985Z,100149.34
2024-01-24T07:39:45.596Z,100173.25
2024-01-24T07:42:12.106Z,100162.16
2024-01-24T07:44:38.616Z,100172.22
2024-01-24T07:47:05.809Z,100177.03
2024-01-24T07:49:36.588Z,100188.72
2024-01-24T07:52:05.462Z,100182.91
2024-01-24T07:54:32.279Z,100177.16
2024-01-24T07:56:59.288Z,100185.22
2024-01-24T07:59:25.997Z,100186.22
2024-01-24T08:01:52.593Z,100192.38
2024-01-24T08:04:19.692Z,100197.28
2024-01-24T08:06:48.747Z,100218.47
2024-01-24T08:09:15.811Z,100210.31
2024-01-24T08:11:42.743Z,100213.56
2024-01-24T08:14:09.852Z,100209.75
2024-01-24T08:16:36.450Z,100229.78
2024-01-24T08:19:03.842Z,100236.25
2024-01-24T08:21:30.644Z,100234.13
2024-01-24T08:23:57.165Z,100235.25
2024-01-24T08:26:23.912Z,100256.69
2024-01-24T08:28:50.500Z,100249.06
2024-01-24T08:31:17.090Z,100255.31
2024-01-24T08:33:43.842Z,100241.69
2024-01-24T08:36:10.648Z,100253.31
2024-01-24T08:38:37.251Z,100255.19
2024-01-24T08:41:05.258Z,100264.66
2024-01-24T08:43:31.807Z,100274.09
2024-01-24T08:45:59.060Z,100256.19
2024-01-24T08:48:26.302Z,100258.84
2024-01-24T08:50:53.347Z,100256.38
2024-01-24T08:53:19.893Z,100260.69
2024-01-24T08:55:46.755Z,100264.00
2024-01-24T08:58:14.010Z,100248.81
2024-01-24T09:00:41.032Z,100260.47
2024-01-24T09:03:07.856Z,100265.88
2024-01-24T09:05:34.974Z,100277.84
2024-01-24T09:08:02.831Z,100273.53
2024-01-24T09:10:29.823Z,100269.94
2024-01-24T09:12:56.496Z,100281.56
2024-01-24T09:15:23.970Z,100283.09
2024-01-24T09:17:51.632Z,100300.72
2024-01-24T09:20:18.808Z,100296.63
2024-01-24T09:22:46.561Z,100296.63
2024-01-24T09:25:14.812Z,100296.63
2024-01-24T09:27:42.199Z,100300.44
2024-01-24T09:30:09.176Z,100304.78
2024-01-24T09:32:35.758Z,100318.59
2024-01-24T09:35:02.469Z,100322.34
2024-01-24T09:37:29.118Z,100351.63
2024-01-24T09:39:56.917Z,100320.06
2024-01-24T09:42:26.661Z,100393.34
2024-01-24T09:44:53.948Z,100384.88
2024-01-24T09:47:23.382Z,100384.31
2024-01-24T09:49:50.603Z,100385.66
2024-01-24T09:52:26.257Z,100370.16
2024-01-24T09:55:00.323Z,100381.56
2024-01-24T09:57:28.270Z,100353.81
2024-01-24T09:59:55.772Z,100368.94
2024-01-24T10:02:23.279Z,100359.16
2024-01-24T10:04:52.920Z,100377.59
2024-01-24T10:07:20.758Z,100384.13
2024-01-24T10:09:48.363Z,100389.03
2024-01-24T10:12:14.933Z,100391.75
2024-01-24T10:14:44.359Z,100412.16
2024-01-24T10:17:12.607Z,100424.94
2024-01-24T10:19:39.658Z,100412.97
2024-01-24T10:22:09.395Z,100397.84
2024-01-24T10:24:37.704Z,100415.97
2024-01-24T10:27:04.539Z,100429.63
2024-01-24T10:29:31.737Z,100418.22
2024-01-24T10:31:58.407Z,100426.13
2024-01-24T10:34:29.068Z,100409.84
2024-01-24T10:36:56.165Z,100425.59
2024-01-24T10:39:26.383Z,100423.16
2024-01-24T10:41:55.724Z,100414.66
2024-01-24T10:44:26.338Z,100415.25
2024-01-24T10:46:53.307Z,100419.50
2024-01-24T10:49:22.705Z,100404.53
2024-01-24T10:51:49.503Z,100399.31
2024-01-24T10:54:17.903Z,100401.19
2024-01-24T10:56:51.367Z,100410.53
2024-01-24T10:59:19.000Z,100418.53
2024-01-24T11:01:46.213Z,100410.97
2024-01-24T11:04:16.642Z,100412.81
2024-01-24T11:06:49.577Z,100422.16
2024-01-24T11:09:25.524Z,100417.59
2024-01-24T11:11:55.951Z,100415.91
2024-01-24T11:14:36.059Z,100409.25
2024-01-24T11:17:04.648Z,100405.53
2024-01-24T11:19:32.449Z,100412.91
2024-01-24T11:22:13.051Z,100405.78
2024-01-24T11:24:46.392Z,100431.16
2024-01-24T11:27:25.218Z,100425.81
2024-01-24T11:29:52.644Z,100429.38
2024-01-24T11:32:55.887Z,100453.56
2024-01-24T11:35:38.976Z,100461.75
2024-01-24T11:38:30.155Z,100444.00
2024-01-24T11:41:00.942Z,100459.78
2024-01-24T11:43:32.704Z,100483.41
2024-01-24T11:46:04.799Z,100456.84
2024-01-24T11:48:33.569Z,100445.72
2024-01-24T11:51:02.038Z,100448.44
2024-01-24T11:53:29.266Z,100469.06
2024-01-24T11:56:02.823Z,100461.69
2024-01-24T11:58:30.323Z,100434.78
2024-01-24T12:01:12.189Z,100442.28
2024-01-24T12:03:47.140Z,100457.38
2024-01-24T12:06:14.012Z,100469.28
2024-01-24T12:08:40.595Z,100487.63
2024-01-24T12:11:10.409Z,100485.16
2024-01-24T12:13:37.423Z,100490.88
2024-01-24T12:16:04.519Z,100493.72
2024-01-24T12:18:31.866Z,100507.88
2024-01-24T12:21:02.207Z,100513.94
2024-01-24T12:23:30.127Z,100511.84
2024-01-24T12:25:57.511Z,100496.75
2024-01-24T12:28:25.049Z,100490.31
2024-01-24T12:30:54.238Z,100502.03
2024-01-24T12:33:21.009Z,100514.53
2024-01-24T12:35:48.309Z,100523.91
2024-01-24T12:38:15.978Z,100514.09
2024-01-24T12:40:51.761Z,100498.03
2024-01-24T12:43:22.714Z,100494.00
2024-01-24T12:45:50.485Z,100499.38
2024-01-24T12:48:19.760Z,100533.06
2024-01-24T12:50:49.760Z,100496.13
2024-01-24T12:53:17.158Z,100515.59
2024-01-24T12:55:43.707Z,100500.28
2024-01-24T12:58:10.804Z,100494.31
2024-01-24T13:00:37.523Z,100509.00
2024-01-24T13:03:06.210Z,100510.41
2024-01-24T13:05:39.664Z,100522.09
2024-01-24T13:08:13.421Z,100509.00
2024-01-24T13:10:44.313Z,100525.31
2024-01-24T13:13:11.881Z,100529.94
2024-01-24T13:15:40.294Z,100504.88
2024-01-24T13:18:08.772Z,100526.34
2024-01-24T13:20:35.530Z,100512.75
2024-01-24T13:23:02.916Z,100506.50
2024-01-24T13:25:29.923Z,100505.06
2024-01-24T13:27:57.003Z,100489.59
2024-01-24T13:30:23.744Z,100522.72
2024-01-24T13:32:50.647Z,100522.78
2024-01-24T13:35:17.670Z,100530.47
2024-01-24T13:37:44.929Z,100520.78
2024-01-24T13:40:12.821Z,100549.53
2024-01-24T13:42:40.446Z,100533.25
2024-01-24T13:45:07.631Z,100537.28
2024-01-24T13:47:34.337Z,100534.25
2024-01-24T13:50:01.023Z,100529.91
2024-01-24T13:52:27.967Z,100530.44
2024-01-24T13:54:54.581Z,100540.72
2024-01-24T13:57:21.227Z,100531.25
2024-01-24T13:59:47.960Z,100534.53
2024-01-24T14:02:14.707Z,100541.09
2024-01-24T14:04:41.658Z,100523.50
2024-01-24T14:07:08.602Z,100525.16
2024-01-24T14:09:37.117Z,100521.91
2024-01-24T14:12:04.352Z,100537.66
2024-01-24T14:14:32.411Z,100538.25
2024-01-24T14:16:59.692Z,100541.00
2024-01-24T14:19:26.878Z,100549.41
2024-01-24T14:21:54.023Z,100544.81
2024-01-24T14:24:21.431Z,100559.47
2024-01-24T14:26:49.767Z,100567.09
2024-01-24T14:29:16.515Z,100556.25
2024-01-24T14:31:43.046Z,100560.06
2024-01-24T14:34:10.245Z,100562.19
2024-01-24T14:36:37.660Z,100563.78
2024-01-24T14:39:07.261Z,100578.97
2024-01-24T14:41:33.873Z,100575.47
2024-01-24T14:44:00.560Z,100568.41
2024-01-24T14:46:27.161Z,100561.09
2024-01-24T14:48:54.157Z,100557.91
2024-01-24T14:51:21.155Z,100560.38
2024-01-24T14:53:48.011Z,100570.69
2024-01-24T14:56:15.645Z,100563.69
2024-01-24T14:58:42.769Z,100571.63
2024-01-24T15:01:10.215Z,100572.16
2024-01-24T15:03:37.251Z,100571.63
2024-01-24T15:06:04.290Z,100586.84
2024-01-24T15:08:31.004Z,100591.22
2024-01-24T15:10:57.547Z,100598.00
2024-01-24T15:13:24.138Z,100594.41
2024-01-24T15:15:51.064Z,100591.72
2024-01-24T15:18:18.186Z,100602.03
2024-01-24T15:20:53.867Z,100608.53
2024-01-24T15:23:30.022Z,100605.84
2024-01-24T15:25:57.181Z,100612.94
2024-01-24T15:28:23.743Z,100610.28
2024-01-24T15:30:50.997Z,100619.75
2024-01-24T15:33:19.261Z,100619.22
2024-01-24T15:35:46.822Z,100632.53
2024-01-24T15:38:13.633Z,100624.97
2024-01-24T15:40:40.261Z,100612.53
2024-01-24T15:43:09.819Z,100602.22
2024-01-24T15:45:37.259Z,100614.19
2024-01-24T15:48:04.701Z,100606.06
2024-01-24T15:50:31.421Z,100616.38
2024-01-24T15:52:58.166Z,100615.03
2024-01-24T15:55:24.848Z,100622.91
2024-01-24T15:57:52.015Z,100640.53
2024-01-24T16:00:20.956Z,100634.28
2024-01-24T16:02:47.670Z,100634.56
2024-01-24T16:05:33.866Z,100638.66
2024-01-24T16:08:03.083Z,100654.09
2024-01-24T16:10:29.964Z,100648.41
2024-01-24T16:12:57.076Z,100648.66
2024-01-24T16:15:23.855Z,100639.72
2024-01-24T16:17:50.468Z,100643.28
2024-01-24T16:20:17.933Z,100651.38
2024-01-24T16:22:51.019Z,100651.66
2024-01-24T16:25:26.183Z,100647.88
2024-01-24T16:27:53.755Z,100649.22
2024-01-24T16:30:21.403Z,100651.13
2024-01-24T16:32:53.962Z,100651.41
2024-01-24T16:35:21.289Z,100643.28
2024-01-24T16:37:47.938Z,100658.19
2024-01-24T16:40:15.497Z,100657.63
2024-01-24T16:42:42.621Z,100659.81
2024-01-24T16:45:10.183Z,100666.56
2024-01-24T16:47:36.899Z,100667.91
2024-01-24T16:50:06.731Z,100658.16
2024-01-24T16:52:33.817Z,100674.69
2024-01-24T16:55:00.741Z,100673.31
2024-01-24T16:57:27.635Z,100666.28
2024-01-24T16:59:54.196Z,100660.88
2024-01-24T17:02:21.128Z,100671.13
2024-01-24T17:04:48.570Z,100677.06
2024-01-24T17:07:15.264Z,100674.13
2024-01-24T17:09:42.271Z,100679.78
2024-01-24T17:12:09.150Z,100677.63
2024-01-24T17:14:35.810Z,100681.16
2024-01-24T17:17:04.606Z,100690.84
2024-01-24T17:19:32.326Z,100694.63
2024-01-24T17:21:59.185Z,100694.09
2024-01-24T17:24:26.048Z,100692.75
2024-01-24T17:26:53.145Z,100705.72
2024-01-24T17:29:19.805Z,100705.72
2024-01-24T17:31:49.053Z,100707.31
2024-01-24T17:34:16.486Z,100700.28
2024-01-24T17:36:43.287Z,100699.75
2024-01-24T17:39:10.082Z,100700.28
2024-01-24T17:41:37.085Z,100699.19
2024-01-24T17:44:03.614Z,100696.47
2024-01-24T17:46:30.402Z,100701.34
2024-01-24T17:48:57.228Z,100695.69
2024-01-24T17:51:24.011Z,100703.25
2024-01-24T17:53:51.280Z,100703.53
2024-01-24T17:56:18.804Z,100705.16
2024-01-24T17:58:47.042Z,100717.59
2024-01-24T18:01:13.899Z,100712.19
2024-01-24T18:03:40.614Z,100727.88
2024-01-24T18:06:07.402Z,100719.22
2024-01-24T18:08:33.899Z,100726.81
2024-01-24T18:11:00.415Z,100725.19
2024-01-24T18:13:28.899Z,100716.81
2024-01-24T18:15:56.352Z,100717.09
2024-01-24T18:18:23.426Z,100713.31
2024-01-24T18:20:50.703Z,100716.03
2024-01-24T18:23:17.655Z,100725.47
2024-01-24T18:25:45.216Z,100717.66
2024-01-24T18:28:11.859Z,100707.91
2024-01-24T18:30:38.435Z,100710.09
2024-01-24T18:33:05.449Z,100713.34
2024-01-24T18:35:32.098Z,100707.94
2024-01-24T18:37:58.612Z,100701.44
2024-01-24T18:40:25.103Z,100701.41
2024-01-24T18:42:51.633Z,100706.00
2024-01-24T18:45:18.419Z,100702.50
2024-01-24T18:47:45.318Z,100710.88
2024-01-24T18:50:12.136Z,100704.66
2024-01-24T18:52:38.844Z,100712.78
2024-01-24T18:55:06.309Z,100707.06
2024-01-24T18:57:33.137Z,100715.97
2024-01-24T19:00:00.256Z,100718.66
2024-01-24T19:02:27.260Z,100729.50
2024-01-24T19:04:54.924Z,100722.75
2024-01-24T19:07:23.471Z,100722.75
2024-01-24T19:09:50.217Z,100725.16
2024-01-24T19:12:17.783Z,100724.38
2024-01-24T19:14:45.222Z,100726.78
2024-01-24T19:17:12.233Z,100725.72
2024-01-24T19:19:39.513Z,100731.41
2024-01-24T19:22:06.124Z,100733.03
2024-01-24T19:24:34.610Z,100735.19
2024-01-24T19:27:01.517Z,100731.66
2024-01-24T19:29:28.263Z,100735.47
2024-01-24T19:31:54.740Z,100729.50
2024-01-24T19:34:21.772Z,100737.63
2024-01-24T19:36:48.438Z,100742.47
2024-01-24T19:39:15.165Z,100732.75
2024-01-24T19:41:41.731Z,100730.31
2024-01-24T19:44:08.304Z,100731.13
2024-01-24T19:46:34.867Z,100728.47
2024-01-24T19:49:01.489Z,100734.97
2024-01-24T19:51:28.240Z,100727.94
2024-01-24T19:53:56.166Z,100728.47
2024-01-24T19:56:23.262Z,100725.47
2024-01-24T19:58:49.850Z,100725.47
2024-01-24T20:01:16.661Z,100723.59
2024-01-24T20:03:43.281Z,100719.81
2024-01-24T20:06:10.336Z,100721.44
2024-01-24T20:08:36.953Z,100712.47
2024-01-24T20:11:04.546Z,100709.22
2024-01-24T20:13:32.271Z,100703.81
2024-01-24T20:15:59.282Z,100701.66
2024-01-24T20:18:26.602Z,100708.41
2024-01-24T20:20:53.329Z,100711.66
2024-01-24T20:23:19.861Z,100700.84
2024-01-24T20:25:47.994Z,100704.09
2024-01-24T20:28:14.692Z,100700.84
2024-01-24T20:30:41.325Z,100705.16
2024-01-24T20:33:07.958Z,100705.97
2024-01-24T20:35:34.511Z,100709.78
2024-01-24T20:38:01.725Z,100708.69
2024-01-24T20:40:28.294Z,100705.16
2024-01-24T20:42:54.999Z,100704.34
2024-01-24T20:45:21.571Z,100704.59
2024-01-24T20:47:50.470Z,100705.97
2024-01-24T20:50:21.615Z,100706.78
2024-01-24T20:52:48.204Z,100696.50
2024-01-24T20:55:14.799Z,100705.69
2024-01-24T20:57:41.371Z,100708.66
2024-01-24T21:00:09.850Z,100706.22
2024-01-24T21:02:36.686Z,100690.00
2024-01-24T21:05:03.810Z,100696.50
2024-01-24T21:07:30.596Z,100689.47
2024-01-24T21:09:57.854Z,100694.56
2024-01-24T21:12:24.403Z,100673.78
2024-01-24T21:14:51.163Z,100680.81
2024-01-24T21:17:18.247Z,100690.78
2024-01-24T21:19:44.843Z,100687.84
2024-01-24T21:22:11.560Z,100694.06
2024-01-24T21:24:38.430Z,100695.13
2024-01-24T21:27:05.217Z,100694.06
2024-01-24T21:29:31.731Z,100697.03
2024-01-24T21:31:59.486Z,100688.09
2024-01-24T21:34:26.190Z,100690.00
2024-01-24T21:36:52.952Z,100689.72
2024-01-24T21:39:19.562Z,100691.63
2024-01-24T21:41:46.045Z,100692.16
2024-01-24T21:44:12.579Z,100685.13
2024-01-24T21:46:39.074Z,100687.84
2024-01-24T21:49:05.709Z,100700.81
2024-01-24T21:51:32.360Z,100706.22
2024-01-24T21:53:58.986Z,100699.72
2024-01-24T21:56:25.906Z,100697.28
2024-01-24T21:58:55.979Z,100696.19
2024-01-24T22:01:24.040Z,100696.75
2024-01-24T22:03:50.962Z,100701.34
2024-01-24T22:06:17.725Z,100714.31
2024-01-24T22:08:44.462Z,100698.63
2024-01-24T22:11:10.978Z,100704.59
2024-01-24T22:13:37.523Z,100704.59
2024-01-24T22:16:05.488Z,100704.06
2024-01-24T22:18:37.060Z,100707.84
2024-01-24T22:21:13.661Z,100713.25
2024-01-24T22:23:40.657Z,100702.44
2024-01-24T22:26:07.219Z,100719.22
2024-01-24T22:28:33.732Z,100708.94
2024-01-24T22:31:00.399Z,100711.09
2024-01-24T22:33:27.129Z,100708.66
2024-01-24T22:35:54.094Z,100718.13
2024-01-24T22:38:20.757Z,100715.19
2024-01-24T22:40:47.358Z,100706.25
2024-01-24T22:43:14.006Z,100691.63
2024-01-24T22:45:40.800Z,100702.22
2024-01-24T22:48:07.919Z,100719.81
2024-01-24T22:50:34.680Z,100710.06
2024-01-24T22:53:01.325Z,100710.63
2024-01-24T22:55:28.087Z,100714.94
2024-01-24T22:57:54.946Z,100711.16
2024-01-24T23:00:23.034Z,100717.66
2024-01-24T23:02:50.035Z,100719.53
2024-01-24T23:05:17.206Z,100718.75
2024-01-24T23:07:44.237Z,100716.56
2024-01-24T23:10:11.405Z,100711.69
2024-01-24T23:12:38.628Z,100714.94
2024-01-24T23:15:06.355Z,100724.69
2024-01-24T23:17:32.985Z,100729.03
2024-01-24T23:19:59.984Z,100724.44
2024-01-24T23:22:27.765Z,100727.41
2024-01-24T23:24:54.421Z,100725.78
2024-01-24T23:27:21.110Z,100727.94
2024-01-24T23:29:47.654Z,100724.16
2024-01-24T23:32:14.196Z,100736.06
2024-01-24T23:34:40.911Z,100727.94
2024-01-24T23:37:07.611Z,100727.09
2024-01-24T23:39:34.272Z,100727.09
2024-01-24T23:42:01.207Z,100727.94
2024-01-24T23:44:27.704Z,100740.09
2024-01-24T23:46:54.245Z,100732.53
2024-01-24T23:49:21.065Z,100729.56
2024-01-24T23:51:48.069Z,100731.72
2024-01-24T23:54:14.728Z,100736.03
2024-01-24T23:56:41.275Z,100740.09
2024-01-24T23:59:09.177Z,100741.44
